STS Fryderyk Chopin — SPS2298 — position and weather

sailwx.info

Track history (hours):
 
Tides and Currents Weather Stations Pressure Air Temp Water Temp Dewpoint Dewpoint Depression Visibility Wind Speed Wind Dir Waves Ship Positions

STS Fryderyk Chopin (Poland)

Ship's website: http://www.fryderykchopin.pl/

Last reported at 2019-Sep-09 19:58 UTC. Time now 2019-Sep-18 11:42 UTC.
Position N 47°40' W 005°13'.
Warning: this ship's position is 8 days out of date.

Length 44 m; draft 4.2 m.

Type: Sailing vessel. MMSI: 261000290.

Date/timePositionNaut miles runAvg speedWind from/ knotsBaromVisibWave heightAir tempDewpointWater temp
2019-Sep-09 19:58N 47°40' W 005°13'5 9.7
2019-Sep-09 19:29N 47°44' W 005°09'5 9.4
2019-Sep-09 19:00N 47°47' W 005°04'4 7.8
2019-Sep-09 18:30N 47°50' W 005°00'3 6.8
2019-Sep-09 18:00N 47°53' W 004°57'4 7.5
2019-Sep-09 17:30N 47°56' W 004°54'4 7.4
2019-Sep-09 17:00N 47°59' W 004°51'5 9.0
2019-Sep-09 16:30N 48°02' W 004°47'4 7.7
2019-Sep-09 16:00N 48°05' W 004°43'3 5.5
2019-Sep-09 15:31N 48°06' W 004°39'2 4.7
2019-Sep-09 15:00N 48°07' W 004°36'2 4.4
2019-Sep-09 14:30N 48°08' W 004°33'3 6.8
2019-Sep-09 14:00N 48°11' W 004°30'2 4.5
2019-Sep-09 13:28N 48°13' W 004°29'0 0.1
2019-Sep-09 12:58N 48°13' W 004°29'0 0.1
2019-Sep-09 12:28N 48°13' W 004°29'0 0.1
2019-Sep-09 11:58N 48°13' W 004°29'0 0.0
2019-Sep-09 11:28N 48°13' W 004°29'0 0.0
2019-Sep-09 10:58N 48°13' W 004°29'0 0.0
2019-Sep-09 10:29N 48°13' W 004°29'0 0.0
2019-Sep-09 10:00N 48°13' W 004°29'0 0.0
2019-Sep-09 09:30N 48°13' W 004°29'0 0.0
2019-Sep-09 09:00N 48°13' W 004°29'0 0.0
2019-Sep-09 08:30N 48°13' W 004°29'0 0.0
2019-Sep-09 08:00N 48°13' W 004°29'0 0.0
2019-Sep-09 07:30N 48°13' W 004°29'0 0.0
2019-Sep-09 07:00N 48°13' W 004°29'0 0.0
2019-Sep-09 06:30N 48°13' W 004°29'0 0.0
2019-Sep-09 06:00N 48°13' W 004°29'0 0.0
2019-Sep-09 05:30N 48°13' W 004°29'0 0.0
2019-Sep-09 05:00N 48°13' W 004°29'0 0.0
2019-Sep-09 04:30N 48°13' W 004°29'0 0.0
2019-Sep-09 04:00N 48°13' W 004°29'0 0.0
2019-Sep-09 03:30N 48°13' W 004°29'0 0.1
2019-Sep-09 03:00N 48°13' W 004°29'0 0.0
2019-Sep-09 02:00N 48°13' W 004°29'0 0.1
2019-Sep-09 01:30N 48°13' W 004°29'0 0.0
2019-Sep-09 01:00N 48°13' W 004°29'0 0.0
2019-Sep-09 00:30N 48°13' W 004°29'0 0.0
2019-Sep-09 00:00N 48°13' W 004°29'0 0.0
2019-Sep-08 23:30N 48°13' W 004°29'0 0.0
2019-Sep-08 23:00N 48°13' W 004°29'0 0.0
2019-Sep-08 22:30N 48°13' W 004°29'0 0.0
2019-Sep-08 22:00N 48°13' W 004°29'0 0.0
2019-Sep-08 21:30N 48°13' W 004°29'0 0.0
2019-Sep-08 21:00N 48°13' W 004°29'0 0.0
2019-Sep-08 20:30N 48°13' W 004°29'0 0.0
2019-Sep-08 20:00N 48°13' W 004°29'0 0.0
2019-Sep-08 19:30N 48°13' W 004°29'0 0.0
2019-Sep-08 19:00N 48°13' W 004°29'0 0.0
2019-Sep-08 18:30N 48°13' W 004°29'0 0.0
2019-Sep-08 18:00N 48°13' W 004°29'0 0.0
2019-Sep-08 17:30N 48°13' W 004°29'0 0.0
2019-Sep-08 17:00N 48°13' W 004°29'0 0.0
2019-Sep-08 16:30N 48°13' W 004°29'0 0.0
2019-Sep-08 16:00N 48°13' W 004°29'0 0.0
2019-Sep-08 15:30N 48°13' W 004°29'0 0.0
2019-Sep-08 15:00N 48°13' W 004°29'0 0.0
2019-Sep-08 14:30N 48°13' W 004°29'0 0.0
2019-Sep-08 14:00N 48°13' W 004°29'0 0.0
2019-Sep-08 13:30N 48°13' W 004°29'0 0.0
2019-Sep-08 13:00N 48°13' W 004°29'0 0.0
2019-Sep-08 12:30N 48°13' W 004°29'0 0.0
2019-Sep-08 12:00N 48°13' W 004°29'0 0.0
2019-Sep-08 11:30N 48°13' W 004°29'0 0.1
2019-Sep-08 11:00N 48°13' W 004°29'0 0.0
2019-Sep-08 10:30N 48°13' W 004°29'0 0.0
2019-Sep-08 10:00N 48°13' W 004°29'0 0.0
2019-Sep-08 09:30N 48°13' W 004°29'0 0.0
2019-Sep-08 09:00N 48°13' W 004°29'0 0.0
2019-Sep-08 08:30N 48°13' W 004°29'0 0.1
2019-Sep-08 08:00N 48°13' W 004°29'0 0.1
2019-Sep-08 07:30N 48°13' W 004°29'0 0.0
2019-Sep-08 07:00N 48°13' W 004°29'0 0.0
2019-Sep-08 06:30N 48°13' W 004°29'0 0.0
2019-Sep-08 06:00N 48°13' W 004°29'0 0.0
2019-Sep-08 05:30N 48°13' W 004°29'0 0.0
2019-Sep-08 05:00N 48°13' W 004°29'0 0.0
2019-Sep-08 04:30N 48°13' W 004°29'0 0.0
2019-Sep-08 04:00N 48°13' W 004°29'0 0.0
2019-Sep-08 03:30N 48°13' W 004°29'0 0.0
2019-Sep-08 03:00N 48°13' W 004°29'0 0.0
2019-Sep-08 02:30N 48°13' W 004°29'0 0.0
2019-Sep-08 02:00N 48°13' W 004°29'0 0.0
2019-Sep-08 01:30N 48°13' W 004°29'0 0.0
2019-Sep-08 01:01N 48°13' W 004°29'0 0.0
2019-Sep-08 00:30N 48°13' W 004°29'0 0.0
2019-Sep-08 00:00N 48°13' W 004°29'0 0.0
2019-Sep-07 23:30N 48°13' W 004°29'0 0.0
2019-Sep-07 23:00N 48°13' W 004°29'0 0.0
2019-Sep-07 22:30N 48°13' W 004°29'0 0.0
2019-Sep-07 22:00N 48°13' W 004°29'0 0.0
2019-Sep-07 21:30N 48°13' W 004°29'0 0.0
2019-Sep-07 21:00N 48°13' W 004°29'0 0.0
2019-Sep-07 20:30N 48°13' W 004°29'0 0.0
2019-Sep-07 20:00N 48°13' W 004°29'0 0.0
2019-Sep-07 19:30N 48°13' W 004°29'0 0.0
2019-Sep-07 19:00N 48°13' W 004°29'2 4.2
2019-Sep-07 18:31N 48°11' W 004°30'3 6.4
2019-Sep-07 18:00N 48°08' W 004°31'4 7.4
2019-Sep-07 17:30N 48°08' W 004°37'4 8.4
2019-Sep-07 17:00N 48°10' W 004°42'4 8.5
2019-Sep-07 16:30N 48°12' W 004°48'4 8.5
2019-Sep-07 16:01N 48°15' W 004°53'4 8.5
2019-Sep-07 15:30N 48°17' W 004°59'4 8.7
2019-Sep-07 15:00N 48°20' W 005°04'4 8.9
2019-Sep-07 14:30N 48°23' W 005°09'5 9.3
2019-Sep-07 14:00N 48°27' W 005°12'4 8.9
2019-Sep-07 13:30N 48°31' W 005°11'4 8.6
2019-Sep-07 13:00N 48°35' W 005°09'4 8.2
2019-Sep-07 12:30N 48°37' W 005°03'4 7.9
2019-Sep-07 12:00N 48°39' W 004°58'2 5.0
2019-Sep-07 11:30N 48°41' W 004°55'1 2.4
2019-Sep-07 11:00N 48°41' W 004°53'1 2.6
2019-Sep-07 10:30N 48°42' W 004°52'1 2.5
2019-Sep-07 10:00N 48°43' W 004°50'1 2.8
2019-Sep-07 09:30N 48°44' W 004°49'2 4.2
2019-Sep-07 09:00N 48°45' W 004°47'2 4.7
2019-Sep-07 08:30N 48°47' W 004°44'2 4.4
2019-Sep-07 08:00N 48°49' W 004°42'8 4.7
2019-Sep-07 06:17N 48°55' W 004°35'1 5.2
2019-Sep-07 06:00N 48°56' W 004°33'4 6.0
2019-Sep-07 05:21N 48°58' W 004°28'54 4.8
2019-Sep-06 18:15N 49°38' W 003°32'10 5.8
2019-Sep-06 16:28N 49°47' W 003°26'20 5.9
2019-Sep-06 13:05N 49°29' W 003°17'0 5.1
2019-Sep-06 13:00N 49°28' W 003°16'3 5.8
2019-Sep-06 12:24N 49°25' W 003°15'7 5.1
2019-Sep-06 11:06N 49°19' W 003°10'4 5.2
2019-Sep-06 10:19N 49°15' W 003°08'1 4.5
2019-Sep-06 09:59N 49°14' W 003°08'2 4.5
2019-Sep-06 09:29N 49°11' W 003°07'7 3.8
2019-Sep-06 07:43N 49°18' W 003°08'3 7.9
2019-Sep-06 07:20N 49°21' W 003°07'3 7.6
2019-Sep-06 06:56N 49°24' W 003°05'10 7.8
2019-Sep-06 05:37N 49°33' W 002°58'13 7.5
2019-Sep-06 03:53N 49°45' W 002°51'3 7.6
2019-Sep-06 03:30N 49°48' W 002°49'4 7.0
2019-Sep-06 02:58N 49°51' W 002°46'4 5.1
2019-Sep-06 02:16N 49°54' W 002°44'4 2.2
2019-Sep-06 00:16N 49°58' W 002°40'1 2.2
2019-Sep-05 23:40N 49°59' W 002°39'21 5.4
2019-Sep-05 19:47N 50°07' W 002°09'3 9.4
2019-Sep-05 19:30N 50°08' W 002°05'20 8.3
2019-Sep-05 17:05N 50°21' W 001°41'1 7.1
2019-Sep-05 16:58N 50°22' W 001°40'13 6.6
2019-Sep-05 15:01N 50°27' W 001°22'2 4.9
2019-Sep-05 14:34N 50°29' W 001°19'0 3.1
2019-Sep-05 14:30N 50°29' W 001°19'1 2.9
2019-Sep-05 14:00N 50°30' W 001°17'1 2.7
2019-Sep-05 13:30N 50°30' W 001°15'1 1.9
2019-Sep-05 13:00N 50°31' W 001°14'1 1.9
2019-Sep-05 12:30N 50°31' W 001°12'1 2.2
2019-Sep-05 12:00N 50°32' W 001°11'1 2.9
2019-Sep-05 11:30N 50°32' W 001°09'2 3.6
2019-Sep-05 11:00N 50°34' W 001°07'3 5.6
2019-Sep-05 10:30N 50°36' W 001°04'2 5.0
2019-Sep-05 10:00N 50°38' W 001°02'4 7.8
2019-Sep-05 09:30N 50°42' W 001°02'4 8.8
2019-Sep-05 09:00N 50°46' W 001°05'2 4.5
2019-Sep-05 08:30N 50°48' W 001°07'0 0.0
2019-Sep-05 07:58N 50°48' W 001°07'0 0.0
2019-Sep-05 07:28N 50°48' W 001°07'0 0.0
2019-Sep-05 06:58N 50°48' W 001°07'0 0.0
2019-Sep-05 06:28N 50°48' W 001°07'0 0.0
2019-Sep-05 05:58N 50°48' W 001°07'0 0.0
2019-Sep-05 05:28N 50°48' W 001°07'0 0.0
2019-Sep-05 04:58N 50°48' W 001°07'0 0.0
2019-Sep-05 04:28N 50°48' W 001°07'0 0.0
2019-Sep-05 03:58N 50°48' W 001°07'0 0.0
2019-Sep-05 03:28N 50°48' W 001°07'0 0.0
2019-Sep-05 02:58N 50°48' W 001°07'0 0.0
2019-Sep-05 02:28N 50°48' W 001°07'0 0.0
2019-Sep-05 01:28N 50°48' W 001°07'0 0.0
2019-Sep-05 00:58N 50°48' W 001°07'0 0.0
2019-Sep-05 00:28N 50°48' W 001°07'0 0.0
2019-Sep-04 23:58N 50°48' W 001°07'0 0.0
2019-Sep-04 23:28N 50°48' W 001°07'0 0.0
2019-Sep-04 22:58N 50°48' W 001°07'0 0.0
2019-Sep-04 22:28N 50°48' W 001°07'0 0.0
2019-Sep-04 21:58N 50°48' W 001°07'0 0.0
2019-Sep-04 21:28N 50°48' W 001°07'0 0.0
2019-Sep-04 20:58N 50°48' W 001°07'0 0.0
2019-Sep-04 20:28N 50°48' W 001°07'0 0.0
2019-Sep-04 19:58N 50°48' W 001°07'0 0.0
2019-Sep-04 19:28N 50°48' W 001°07'0 0.0
2019-Sep-04 18:52N 50°48' W 001°07'0 0.0
2019-Sep-04 18:28N 50°48' W 001°07'0 0.0
2019-Sep-04 17:58N 50°48' W 001°07'0 0.0
2019-Sep-04 17:28N 50°48' W 001°07'0 0.0
2019-Sep-04 16:58N 50°48' W 001°07'0 0.0
2019-Sep-04 16:28N 50°48' W 001°07'0 0.0
2019-Sep-04 15:58N 50°48' W 001°07'0 0.0
2019-Sep-04 15:28N 50°48' W 001°07'0 0.0
2019-Sep-04 14:58N 50°48' W 001°07'0 0.0
2019-Sep-04 14:28N 50°48' W 001°07'0 0.0
2019-Sep-04 13:58N 50°48' W 001°07'0 0.0
2019-Sep-04 13:28N 50°48' W 001°07'0 0.0
2019-Sep-04 12:58N 50°48' W 001°07'0 0.0
2019-Sep-04 12:28N 50°48' W 001°07'0 0.0
2019-Sep-04 11:58N 50°48' W 001°07'0 0.0
2019-Sep-04 11:28N 50°48' W 001°07'0 0.0
2019-Sep-04 10:58N 50°48' W 001°07'0 0.0
2019-Sep-04 10:28N 50°48' W 001°07'0 0.0
2019-Sep-04 09:58N 50°48' W 001°07'0 0.0
2019-Sep-04 09:28N 50°48' W 001°07'0 0.1
2019-Sep-04 09:00N 50°48' W 001°07'3 6.3
2019-Sep-04 08:30N 50°45' W 001°05'3 6.5
2019-Sep-04 08:00N 50°43' W 001°00'3 6.2
2019-Sep-04 07:30N 50°40' W 000°58'3 6.2
2019-Sep-04 07:00N 50°37' W 000°60'2 4.1
2019-Sep-04 06:30N 50°35' W 001°01'1 1.6
2019-Sep-04 05:59N 50°35' W 000°59'2 3.6
2019-Sep-04 05:30N 50°35' W 000°57'2 4.4
2019-Sep-04 05:01N 50°34' W 000°54'4 4.7
2019-Sep-04 04:08N 50°33' W 000°48'5 4.6
2019-Sep-04 03:01N 50°31' W 000°40'6 6.5
2019-Sep-04 02:10N 50°27' W 000°34'1 6.3
2019-Sep-04 01:57N 50°25' W 000°33'3 5.9
2019-Sep-04 01:25N 50°23' W 000°30'4 5.8
2019-Sep-04 00:48N 50°20' W 000°28'5 5.7
2019-Sep-04 00:00N 50°15' W 000°27'2 4.8
2019-Sep-03 23:29N 50°13' W 000°27'2 4.4
2019-Sep-03 22:58N 50°10' W 000°27'2 3.6
2019-Sep-03 22:29N 50°09' W 000°27'1 2.9
2019-Sep-03 22:00N 50°07' W 000°28'1 2.6
2019-Sep-03 21:30N 50°06' W 000°29'1 2.8
2019-Sep-03 21:00N 50°05' W 000°29'2 3.5
2019-Sep-03 20:30N 50°03' W 000°28'1 1.9
2019-Sep-03 19:56N 50°02' W 000°27'3 5.5
2019-Sep-03 19:29N 50°05' W 000°25'29 5.9
2019-Sep-03 14:29N 50°31' W 000°05'14 4.6
2019-Sep-03 11:24N 50°36' E 000°15'11 5.0
2019-Sep-03 09:14N 50°38' E 000°32'2 6.8
2019-Sep-03 08:55N 50°39' E 000°35'3 7.5
2019-Sep-03 08:27N 50°42' E 000°39'3 7.5
2019-Sep-03 08:00N 50°43' E 000°44'4 8.0
2019-Sep-03 07:30N 50°45' E 000°49'4 8.0
2019-Sep-03 07:00N 50°48' E 000°55'4 7.9
2019-Sep-03 06:29N 50°50' E 000°60'3 7.0
2019-Sep-03 06:00N 50°52' E 001°04'3 6.8
2019-Sep-03 05:30N 50°54' E 001°08'3 6.5
2019-Sep-03 05:00N 50°56' E 001°12'3 6.0
2019-Sep-03 04:30N 50°58' E 001°16'3 5.3
2019-Sep-03 04:00N 50°60' E 001°19'2 4.8
2019-Sep-03 03:30N 51°02' E 001°22'2 4.3
2019-Sep-03 03:00N 51°03' E 001°24'2 3.5
2019-Sep-03 02:30N 51°04' E 001°26'1 2.9
2019-Sep-03 02:01N 51°05' E 001°28'1 2.7
2019-Sep-03 01:30N 51°06' E 001°30'1 2.8
2019-Sep-03 01:00N 51°07' E 001°31'1 3.0
2019-Sep-03 00:30N 51°08' E 001°33'2 4.3
2019-Sep-03 00:00N 51°09' E 001°36'3 6.2
2019-Sep-02 23:30N 51°11' E 001°40'4 7.6
2019-Sep-02 23:01N 51°14' E 001°44'5 9.7
2019-Sep-02 22:30N 51°18' E 001°47'5 9.7
2019-Sep-02 22:00N 51°23' E 001°50'4 8.5
2019-Sep-02 21:30N 51°26' E 001°53'4 7.5
2019-Sep-02 21:00N 51°29' E 001°57'3 7.0
2019-Sep-02 20:30N 51°32' E 001°60'3 6.2
2019-Sep-02 20:00N 51°35' E 002°02'3 5.7
2019-Sep-02 19:30N 51°38' E 002°04'2 4.8
2019-Sep-02 19:00N 51°40' E 002°06'2 4.6
2019-Sep-02 18:30N 51°42' E 002°08'2 4.0
2019-Sep-02 18:00N 51°44' E 002°08'2 3.7
2019-Sep-02 17:30N 51°46' E 002°09'2 3.7
2019-Sep-02 17:01N 51°47' E 002°09'1 1.1
2019-Sep-02 16:28N 51°47' E 002°09'3 6.3
2019-Sep-02 15:58N 51°45' E 002°13'17 6.9
2019-Sep-02 13:31N 51°32' E 002°31'1 5.7
2019-Sep-02 13:22N 51°31' E 002°32'2 4.3
2019-Sep-02 12:57N 51°30' E 002°34'9 5.7
2019-Sep-02 11:26N 51°25' E 002°46'3 6.2
2019-Sep-02 10:59N 51°24' E 002°49'3 5.6
2019-Sep-02 10:30N 51°22' E 002°53'1 2.4
2019-Sep-02 09:56N 51°23' E 002°55'3 5.4
2019-Sep-02 09:28N 51°25' E 002°56'27 3.9
2019-Sep-02 02:41N 51°46' E 003°24'1 2.9
2019-Sep-02 02:30N 51°46' E 003°24'2 3.6
2019-Sep-02 01:57N 51°48' E 003°27'2 4.1
2019-Sep-02 01:30N 51°49' E 003°28'3 5.8
2019-Sep-02 01:00N 51°51' E 003°32'4 8.3
2019-Sep-02 00:30N 51°54' E 003°37'5 9.4
2019-Sep-02 00:00N 51°58' E 003°41'5 9.1
2019-Sep-01 23:30N 52°01' E 003°45'4 7.5
2019-Sep-01 23:00N 52°04' E 003°49'3 5.8
2019-Sep-01 22:30N 52°06' E 003°52'2 4.6
2019-Sep-01 22:00N 52°09' E 003°53'1 1.9
2019-Sep-01 21:30N 52°09' E 003°54'2 3.2
2019-Sep-01 21:00N 52°09' E 003°57'1 1.4
2019-Sep-01 20:30N 52°09' E 003°58'1 3.0
2019-Sep-01 20:00N 52°10' E 004°00'4 7.6
2019-Sep-01 19:30N 52°09' E 004°06'4 7.2
2019-Sep-01 19:00N 52°08' E 004°12'3 5.3
2019-Sep-01 18:30N 52°06' E 004°15'1 0.9
2019-Sep-01 17:58N 52°06' E 004°16'0 0.0
2019-Sep-01 17:28N 52°06' E 004°16'0 0.0
2019-Sep-01 16:58N 52°06' E 004°16'0 0.0
2019-Sep-01 16:28N 52°06' E 004°16'0 0.0
2019-Sep-01 15:58N 52°06' E 004°16'0 0.0
2019-Sep-01 15:28N 52°06' E 004°16'0 0.0
2019-Sep-01 14:58N 52°06' E 004°16'0 0.0
2019-Sep-01 14:25N 52°06' E 004°16'0 0.0
2019-Sep-01 13:58N 52°06' E 004°16'0 0.0
2019-Sep-01 13:28N 52°06' E 004°16'0 0.0
2019-Sep-01 12:58N 52°06' E 004°16'0 0.0
2019-Sep-01 12:28N 52°06' E 004°16'0 0.0
2019-Sep-01 11:58N 52°06' E 004°16'0 0.0
2019-Sep-01 11:28N 52°06' E 004°16'0 0.0
2019-Sep-01 10:58N 52°06' E 004°16'0 0.0
2019-Sep-01 10:28N 52°06' E 004°16'0 0.0
2019-Sep-01 09:58N 52°06' E 004°16'0 0.0
2019-Sep-01 09:28N 52°06' E 004°16'0 0.0
2019-Sep-01 08:58N 52°06' E 004°16'0 0.0
2019-Sep-01 08:28N 52°06' E 004°16'0 0.0
2019-Sep-01 07:58N 52°06' E 004°16'0 0.0
2019-Sep-01 07:28N 52°06' E 004°16'0 0.0
2019-Sep-01 06:58N 52°06' E 004°16'0 0.0
2019-Sep-01 06:28N 52°06' E 004°16'0 0.0
2019-Sep-01 05:58N 52°06' E 004°16'0 0.0
2019-Sep-01 05:28N 52°06' E 004°16'0 0.0
2019-Sep-01 04:58N 52°06' E 004°16'0 0.0
2019-Sep-01 04:28N 52°06' E 004°16'0 0.0
2019-Sep-01 03:58N 52°06' E 004°16'0 0.0
2019-Sep-01 03:28N 52°06' E 004°16'0 0.0
2019-Sep-01 02:58N 52°06' E 004°16'0 0.0
2019-Sep-01 02:28N 52°06' E 004°16'0 0.0
2019-Sep-01 01:58N 52°06' E 004°16'0 0.0
2019-Sep-01 01:28N 52°06' E 004°16'0 0.0
2019-Sep-01 00:58N 52°06' E 004°16'0 0.0
2019-Sep-01 00:28N 52°06' E 004°16'0 0.0
2019-Aug-31 23:58N 52°06' E 004°16'0 0.0
2019-Aug-31 23:28N 52°06' E 004°16'0 0.0
2019-Aug-31 22:58N 52°06' E 004°16'0 0.0
2019-Aug-31 22:28N 52°06' E 004°16'0 0.0
2019-Aug-31 21:58N 52°06' E 004°16'0 0.0
2019-Aug-31 21:28N 52°06' E 004°16'0 0.0
2019-Aug-31 20:58N 52°06' E 004°16'0 0.0
2019-Aug-31 20:28N 52°06' E 004°16'0 0.0
2019-Aug-31 19:58N 52°06' E 004°16'0 0.0
2019-Aug-31 19:28N 52°06' E 004°16'0 0.0
2019-Aug-31 18:58N 52°06' E 004°16'0 0.0
2019-Aug-31 18:25N 52°06' E 004°16'0 0.0
2019-Aug-31 17:58N 52°06' E 004°16'0 0.0
2019-Aug-31 17:28N 52°06' E 004°16'0 0.0
2019-Aug-31 16:58N 52°06' E 004°16'0 0.0
2019-Aug-31 16:28N 52°06' E 004°16'0 0.0
2019-Aug-31 15:58N 52°06' E 004°16'0 0.0
2019-Aug-31 15:28N 52°06' E 004°16'0 0.0
2019-Aug-31 14:58N 52°06' E 004°16'0 0.0
2019-Aug-31 14:28N 52°06' E 004°16'0 0.1
2019-Aug-31 14:00N 52°06' E 004°16'2 3.4
2019-Aug-31 13:30N 52°07' E 004°14'4 7.0
2019-Aug-31 13:00N 52°11' E 004°14'3 5.8
2019-Aug-31 12:30N 52°13' E 004°12'0 0.5
2019-Aug-31 12:00N 52°14' E 004°11'0 1.0
2019-Aug-31 11:30N 52°14' E 004°11'1 2.9
2019-Aug-31 11:00N 52°15' E 004°09'2 3.9
2019-Aug-31 10:30N 52°16' E 004°06'2 4.3
2019-Aug-31 10:00N 52°17' E 004°03'3 5.0
2019-Aug-31 09:30N 52°18' E 003°60'2 4.6
2019-Aug-31 09:00N 52°20' E 003°57'2 4.1
2019-Aug-31 08:30N 52°21' E 003°54'3 5.1
2019-Aug-31 08:00N 52°22' E 003°50'2 4.8
2019-Aug-31 07:30N 52°23' E 003°47'2 4.9
2019-Aug-31 07:00N 52°25' E 003°44'4 7.9
2019-Aug-31 06:30N 52°29' E 003°42'4 7.5
2019-Aug-31 06:00N 52°32' E 003°40'3 5.3
2019-Aug-31 05:30N 52°35' E 003°39'2 4.8
2019-Aug-31 05:00N 52°36' E 003°43'3 5.3
2019-Aug-31 04:30N 52°36' E 003°47'2 4.9
2019-Aug-31 04:00N 52°36' E 003°51'2 3.9
2019-Aug-31 03:30N 52°36' E 003°54'1 2.6
2019-Aug-31 03:00N 52°36' E 003°56'1 1.6
2019-Aug-31 02:29N 52°35' E 003°57'1 1.5
2019-Aug-31 02:00N 52°35' E 003°58'1 2.0
2019-Aug-31 01:30N 52°35' E 004°00'1 2.8
2019-Aug-31 01:00N 52°35' E 004°02'2 3.8
2019-Aug-31 00:30N 52°36' E 004°05'3 6.0
2019-Aug-31 00:00N 52°38' E 004°10'3 7.1
2019-Aug-30 23:30N 52°39' E 004°15'3 6.2
2019-Aug-30 22:57N 52°41' E 004°20'3 6.0
2019-Aug-30 22:30N 52°42' E 004°24'2 4.7
2019-Aug-30 22:00N 52°43' E 004°27'3 6.6
2019-Aug-30 21:30N 52°45' E 004°31'3 6.7
2019-Aug-30 21:00N 52°48' E 004°33'3 6.5
2019-Aug-30 20:30N 52°51' E 004°36'3 6.4
2019-Aug-30 20:00N 52°54' E 004°38'  
Track history (hours):
 
Tides and Currents Weather Stations Pressure Air Temp Water Temp Dewpoint Dewpoint Depression Visibility Wind Speed Wind Dir Waves Ship Positions

STS Fryderyk Chopin (Poland)

Ship's website: http://www.fryderykchopin.pl/

Last reported at 2019-Sep-09 19:58 UTC. Time now 2019-Sep-18 11:42 UTC.
Position N 47°40' W 005°13'.
Warning: this ship's position is 8 days out of date.

Length 44 m; draft 4.2 m.

Type: Sailing vessel. MMSI: 261000290.

Date/timePositionNaut miles runAvg speedWind from/ knotsBaromVisibWave heightAir tempDewpointWater temp
2019-Sep-09 19:58N 47°40' W 005°13'5 9.7
2019-Sep-09 19:29N 47°44' W 005°09'5 9.4
2019-Sep-09 19:00N 47°47' W 005°04'4 7.8
2019-Sep-09 18:30N 47°50' W 005°00'3 6.8
2019-Sep-09 18:00N 47°53' W 004°57'4 7.5
2019-Sep-09 17:30N 47°56' W 004°54'4 7.4
2019-Sep-09 17:00N 47°59' W 004°51'5 9.0
2019-Sep-09 16:30N 48°02' W 004°47'4 7.7
2019-Sep-09 16:00N 48°05' W 004°43'3 5.5
2019-Sep-09 15:31N 48°06' W 004°39'2 4.7
2019-Sep-09 15:00N 48°07' W 004°36'2 4.4
2019-Sep-09 14:30N 48°08' W 004°33'3 6.8
2019-Sep-09 14:00N 48°11' W 004°30'2 4.5
2019-Sep-09 13:28N 48°13' W 004°29'0 0.1
2019-Sep-09 12:58N 48°13' W 004°29'0 0.1
2019-Sep-09 12:28N 48°13' W 004°29'0 0.1
2019-Sep-09 11:58N 48°13' W 004°29'0 0.0
2019-Sep-09 11:28N 48°13' W 004°29'0 0.0
2019-Sep-09 10:58N 48°13' W 004°29'0 0.0
2019-Sep-09 10:29N 48°13' W 004°29'0 0.0
2019-Sep-09 10:00N 48°13' W 004°29'0 0.0
2019-Sep-09 09:30N 48°13' W 004°29'0 0.0
2019-Sep-09 09:00N 48°13' W 004°29'0 0.0
2019-Sep-09 08:30N 48°13' W 004°29'0 0.0
2019-Sep-09 08:00N 48°13' W 004°29'0 0.0
2019-Sep-09 07:30N 48°13' W 004°29'0 0.0
2019-Sep-09 07:00N 48°13' W 004°29'0 0.0
2019-Sep-09 06:30N 48°13' W 004°29'0 0.0
2019-Sep-09 06:00N 48°13' W 004°29'0 0.0
2019-Sep-09 05:30N 48°13' W 004°29'0 0.0
2019-Sep-09 05:00N 48°13' W 004°29'0 0.0
2019-Sep-09 04:30N 48°13' W 004°29'0 0.0
2019-Sep-09 04:00N 48°13' W 004°29'0 0.0
2019-Sep-09 03:30N 48°13' W 004°29'0 0.1
2019-Sep-09 03:00N 48°13' W 004°29'0 0.0
2019-Sep-09 02:00N 48°13' W 004°29'0 0.1
2019-Sep-09 01:30N 48°13' W 004°29'0 0.0
2019-Sep-09 01:00N 48°13' W 004°29'0 0.0
2019-Sep-09 00:30N 48°13' W 004°29'0 0.0
2019-Sep-09 00:00N 48°13' W 004°29'0 0.0
2019-Sep-08 23:30N 48°13' W 004°29'0 0.0
2019-Sep-08 23:00N 48°13' W 004°29'0 0.0
2019-Sep-08 22:30N 48°13' W 004°29'0 0.0
2019-Sep-08 22:00N 48°13' W 004°29'0 0.0
2019-Sep-08 21:30N 48°13' W 004°29'0 0.0
2019-Sep-08 21:00N 48°13' W 004°29'0 0.0
2019-Sep-08 20:30N 48°13' W 004°29'0 0.0
2019-Sep-08 20:00N 48°13' W 004°29'0 0.0
2019-Sep-08 19:30N 48°13' W 004°29'0 0.0
2019-Sep-08 19:00N 48°13' W 004°29'0 0.0
2019-Sep-08 18:30N 48°13' W 004°29'0 0.0
2019-Sep-08 18:00N 48°13' W 004°29'0 0.0
2019-Sep-08 17:30N 48°13' W 004°29'0 0.0
2019-Sep-08 17:00N 48°13' W 004°29'0 0.0
2019-Sep-08 16:30N 48°13' W 004°29'0 0.0
2019-Sep-08 16:00N 48°13' W 004°29'0 0.0
2019-Sep-08 15:30N 48°13' W 004°29'0 0.0
2019-Sep-08 15:00N 48°13' W 004°29'0 0.0
2019-Sep-08 14:30N 48°13' W 004°29'0 0.0
2019-Sep-08 14:00N 48°13' W 004°29'0 0.0
2019-Sep-08 13:30N 48°13' W 004°29'0 0.0
2019-Sep-08 13:00N 48°13' W 004°29'0 0.0
2019-Sep-08 12:30N 48°13' W 004°29'0 0.0
2019-Sep-08 12:00N 48°13' W 004°29'0 0.0
2019-Sep-08 11:30N 48°13' W 004°29'0 0.1
2019-Sep-08 11:00N 48°13' W 004°29'0 0.0
2019-Sep-08 10:30N 48°13' W 004°29'0 0.0
2019-Sep-08 10:00N 48°13' W 004°29'0 0.0
2019-Sep-08 09:30N 48°13' W 004°29'0 0.0
2019-Sep-08 09:00N 48°13' W 004°29'0 0.0
2019-Sep-08 08:30N 48°13' W 004°29'0 0.1
2019-Sep-08 08:00N 48°13' W 004°29'0 0.1
2019-Sep-08 07:30N 48°13' W 004°29'0 0.0
2019-Sep-08 07:00N 48°13' W 004°29'0 0.0
2019-Sep-08 06:30N 48°13' W 004°29'0 0.0
2019-Sep-08 06:00N 48°13' W 004°29'0 0.0
2019-Sep-08 05:30N 48°13' W 004°29'0 0.0
2019-Sep-08 05:00N 48°13' W 004°29'0 0.0
2019-Sep-08 04:30N 48°13' W 004°29'0 0.0
2019-Sep-08 04:00N 48°13' W 004°29'0 0.0
2019-Sep-08 03:30N 48°13' W 004°29'0 0.0
2019-Sep-08 03:00N 48°13' W 004°29'0 0.0
2019-Sep-08 02:30N 48°13' W 004°29'0 0.0
2019-Sep-08 02:00N 48°13' W 004°29'0 0.0
2019-Sep-08 01:30N 48°13' W 004°29'0 0.0
2019-Sep-08 01:01N 48°13' W 004°29'0 0.0
2019-Sep-08 00:30N 48°13' W 004°29'0 0.0
2019-Sep-08 00:00N 48°13' W 004°29'0 0.0
2019-Sep-07 23:30N 48°13' W 004°29'0 0.0
2019-Sep-07 23:00N 48°13' W 004°29'0 0.0
2019-Sep-07 22:30N 48°13' W 004°29'0 0.0
2019-Sep-07 22:00N 48°13' W 004°29'0 0.0
2019-Sep-07 21:30N 48°13' W 004°29'0 0.0
2019-Sep-07 21:00N 48°13' W 004°29'0 0.0
2019-Sep-07 20:30N 48°13' W 004°29'0 0.0
2019-Sep-07 20:00N 48°13' W 004°29'0 0.0
2019-Sep-07 19:30N 48°13' W 004°29'0 0.0
2019-Sep-07 19:00N 48°13' W 004°29'2 4.2
2019-Sep-07 18:31N 48°11' W 004°30'3 6.4
2019-Sep-07 18:00N 48°08' W 004°31'4 7.4
2019-Sep-07 17:30N 48°08' W 004°37'4 8.4
2019-Sep-07 17:00N 48°10' W 004°42'4 8.5
2019-Sep-07 16:30N 48°12' W 004°48'4 8.5
2019-Sep-07 16:01N 48°15' W 004°53'4 8.5
2019-Sep-07 15:30N 48°17' W 004°59'4 8.7
2019-Sep-07 15:00N 48°20' W 005°04'4 8.9
2019-Sep-07 14:30N 48°23' W 005°09'5 9.3
2019-Sep-07 14:00N 48°27' W 005°12'4 8.9
2019-Sep-07 13:30N 48°31' W 005°11'4 8.6
2019-Sep-07 13:00N 48°35' W 005°09'4 8.2
2019-Sep-07 12:30N 48°37' W 005°03'4 7.9
2019-Sep-07 12:00N 48°39' W 004°58'2 5.0
2019-Sep-07 11:30N 48°41' W 004°55'1 2.4
2019-Sep-07 11:00N 48°41' W 004°53'1 2.6
2019-Sep-07 10:30N 48°42' W 004°52'1 2.5
2019-Sep-07 10:00N 48°43' W 004°50'1 2.8
2019-Sep-07 09:30N 48°44' W 004°49'2 4.2
2019-Sep-07 09:00N 48°45' W 004°47'2 4.7
2019-Sep-07 08:30N 48°47' W 004°44'2 4.4
2019-Sep-07 08:00N 48°49' W 004°42'8 4.7
2019-Sep-07 06:17N 48°55' W 004°35'1 5.2
2019-Sep-07 06:00N 48°56' W 004°33'4 6.0
2019-Sep-07 05:21N 48°58' W 004°28'54 4.8
2019-Sep-06 18:15N 49°38' W 003°32'10 5.8
2019-Sep-06 16:28N 49°47' W 003°26'20 5.9
2019-Sep-06 13:05N 49°29' W 003°17'0 5.1
2019-Sep-06 13:00N 49°28' W 003°16'3 5.8
2019-Sep-06 12:24N 49°25' W 003°15'7 5.1
2019-Sep-06 11:06N 49°19' W 003°10'4 5.2
2019-Sep-06 10:19N 49°15' W 003°08'1 4.5
2019-Sep-06 09:59N 49°14' W 003°08'2 4.5
2019-Sep-06 09:29N 49°11' W 003°07'7 3.8
2019-Sep-06 07:43N 49°18' W 003°08'3 7.9
2019-Sep-06 07:20N 49°21' W 003°07'3 7.6
2019-Sep-06 06:56N 49°24' W 003°05'10 7.8
2019-Sep-06 05:37N 49°33' W 002°58'13 7.5
2019-Sep-06 03:53N 49°45' W 002°51'3 7.6
2019-Sep-06 03:30N 49°48' W 002°49'4 7.0
2019-Sep-06 02:58N 49°51' W 002°46'4 5.1
2019-Sep-06 02:16N 49°54' W 002°44'4 2.2
2019-Sep-06 00:16N 49°58' W 002°40'1 2.2
2019-Sep-05 23:40N 49°59' W 002°39'21 5.4
2019-Sep-05 19:47N 50°07' W 002°09'3 9.4
2019-Sep-05 19:30N 50°08' W 002°05'20 8.3
2019-Sep-05 17:05N 50°21' W 001°41'1 7.1
2019-Sep-05 16:58N 50°22' W 001°40'13 6.6
2019-Sep-05 15:01N 50°27' W 001°22'2 4.9
2019-Sep-05 14:34N 50°29' W 001°19'0 3.1
2019-Sep-05 14:30N 50°29' W 001°19'1 2.9
2019-Sep-05 14:00N 50°30' W 001°17'1 2.7
2019-Sep-05 13:30N 50°30' W 001°15'1 1.9
2019-Sep-05 13:00N 50°31' W 001°14'1 1.9
2019-Sep-05 12:30N 50°31' W 001°12'1 2.2
2019-Sep-05 12:00N 50°32' W 001°11'1 2.9
2019-Sep-05 11:30N 50°32' W 001°09'2 3.6
2019-Sep-05 11:00N 50°34' W 001°07'3 5.6
2019-Sep-05 10:30N 50°36' W 001°04'2 5.0
2019-Sep-05 10:00N 50°38' W 001°02'4 7.8
2019-Sep-05 09:30N 50°42' W 001°02'4 8.8
2019-Sep-05 09:00N 50°46' W 001°05'2 4.5
2019-Sep-05 08:30N 50°48' W 001°07'0 0.0
2019-Sep-05 07:58N 50°48' W 001°07'0 0.0
2019-Sep-05 07:28N 50°48' W 001°07'0 0.0
2019-Sep-05 06:58N 50°48' W 001°07'0 0.0
2019-Sep-05 06:28N 50°48' W 001°07'0 0.0
2019-Sep-05 05:58N 50°48' W 001°07'0 0.0
2019-Sep-05 05:28N 50°48' W 001°07'0 0.0
2019-Sep-05 04:58N 50°48' W 001°07'0 0.0
2019-Sep-05 04:28N 50°48' W 001°07'0 0.0
2019-Sep-05 03:58N 50°48' W 001°07'0 0.0
2019-Sep-05 03:28N 50°48' W 001°07'0 0.0
2019-Sep-05 02:58N 50°48' W 001°07'0 0.0
2019-Sep-05 02:28N 50°48' W 001°07'0 0.0
2019-Sep-05 01:28N 50°48' W 001°07'0 0.0
2019-Sep-05 00:58N 50°48' W 001°07'0 0.0
2019-Sep-05 00:28N 50°48' W 001°07'0 0.0
2019-Sep-04 23:58N 50°48' W 001°07'0 0.0
2019-Sep-04 23:28N 50°48' W 001°07'0 0.0
2019-Sep-04 22:58N 50°48' W 001°07'0 0.0
2019-Sep-04 22:28N 50°48' W 001°07'0 0.0
2019-Sep-04 21:58N 50°48' W 001°07'0 0.0
2019-Sep-04 21:28N 50°48' W 001°07'0 0.0
2019-Sep-04 20:58N 50°48' W 001°07'0 0.0
2019-Sep-04 20:28N 50°48' W 001°07'0 0.0
2019-Sep-04 19:58N 50°48' W 001°07'0 0.0
2019-Sep-04 19:28N 50°48' W 001°07'0 0.0
2019-Sep-04 18:52N 50°48' W 001°07'0 0.0
2019-Sep-04 18:28N 50°48' W 001°07'0 0.0
2019-Sep-04 17:58N 50°48' W 001°07'0 0.0
2019-Sep-04 17:28N 50°48' W 001°07'0 0.0
2019-Sep-04 16:58N 50°48' W 001°07'0 0.0
2019-Sep-04 16:28N 50°48' W 001°07'0 0.0
2019-Sep-04 15:58N 50°48' W 001°07'0 0.0
2019-Sep-04 15:28N 50°48' W 001°07'0 0.0
2019-Sep-04 14:58N 50°48' W 001°07'0 0.0
2019-Sep-04 14:28N 50°48' W 001°07'0 0.0
2019-Sep-04 13:58N 50°48' W 001°07'0 0.0
2019-Sep-04 13:28N 50°48' W 001°07'0 0.0
2019-Sep-04 12:58N 50°48' W 001°07'0 0.0
2019-Sep-04 12:28N 50°48' W 001°07'0 0.0
2019-Sep-04 11:58N 50°48' W 001°07'0 0.0
2019-Sep-04 11:28N 50°48' W 001°07'0 0.0
2019-Sep-04 10:58N 50°48' W 001°07'0 0.0
2019-Sep-04 10:28N 50°48' W 001°07'0 0.0
2019-Sep-04 09:58N 50°48' W 001°07'0 0.0
2019-Sep-04 09:28N 50°48' W 001°07'0 0.1
2019-Sep-04 09:00N 50°48' W 001°07'3 6.3
2019-Sep-04 08:30N 50°45' W 001°05'3 6.5
2019-Sep-04 08:00N 50°43' W 001°00'3 6.2
2019-Sep-04 07:30N 50°40' W 000°58'3 6.2
2019-Sep-04 07:00N 50°37' W 000°60'2 4.1
2019-Sep-04 06:30N 50°35' W 001°01'1 1.6
2019-Sep-04 05:59N 50°35' W 000°59'2 3.6
2019-Sep-04 05:30N 50°35' W 000°57'2 4.4
2019-Sep-04 05:01N 50°34' W 000°54'4 4.7
2019-Sep-04 04:08N 50°33' W 000°48'5 4.6
2019-Sep-04 03:01N 50°31' W 000°40'6 6.5
2019-Sep-04 02:10N 50°27' W 000°34'1 6.3
2019-Sep-04 01:57N 50°25' W 000°33'3 5.9
2019-Sep-04 01:25N 50°23' W 000°30'4 5.8
2019-Sep-04 00:48N 50°20' W 000°28'5 5.7
2019-Sep-04 00:00N 50°15' W 000°27'2 4.8
2019-Sep-03 23:29N 50°13' W 000°27'2 4.4
2019-Sep-03 22:58N 50°10' W 000°27'2 3.6
2019-Sep-03 22:29N 50°09' W 000°27'1 2.9
2019-Sep-03 22:00N 50°07' W 000°28'1 2.6
2019-Sep-03 21:30N 50°06' W 000°29'1 2.8
2019-Sep-03 21:00N 50°05' W 000°29'2 3.5
2019-Sep-03 20:30N 50°03' W 000°28'1 1.9
2019-Sep-03 19:56N 50°02' W 000°27'3 5.5
2019-Sep-03 19:29N 50°05' W 000°25'29 5.9
2019-Sep-03 14:29N 50°31' W 000°05'14 4.6
2019-Sep-03 11:24N 50°36' E 000°15'11 5.0
2019-Sep-03 09:14N 50°38' E 000°32'2 6.8
2019-Sep-03 08:55N 50°39' E 000°35'3 7.5
2019-Sep-03 08:27N 50°42' E 000°39'3 7.5
2019-Sep-03 08:00N 50°43' E 000°44'4 8.0
2019-Sep-03 07:30N 50°45' E 000°49'4 8.0
2019-Sep-03 07:00N 50°48' E 000°55'4 7.9
2019-Sep-03 06:29N 50°50' E 000°60'3 7.0
2019-Sep-03 06:00N 50°52' E 001°04'3 6.8
2019-Sep-03 05:30N 50°54' E 001°08'3 6.5
2019-Sep-03 05:00N 50°56' E 001°12'3 6.0
2019-Sep-03 04:30N 50°58' E 001°16'3 5.3
2019-Sep-03 04:00N 50°60' E 001°19'2 4.8
2019-Sep-03 03:30N 51°02' E 001°22'2 4.3
2019-Sep-03 03:00N 51°03' E 001°24'2 3.5
2019-Sep-03 02:30N 51°04' E 001°26'1 2.9
2019-Sep-03 02:01N 51°05' E 001°28'1 2.7
2019-Sep-03 01:30N 51°06' E 001°30'1 2.8
2019-Sep-03 01:00N 51°07' E 001°31'1 3.0
2019-Sep-03 00:30N 51°08' E 001°33'2 4.3
2019-Sep-03 00:00N 51°09' E 001°36'3 6.2
2019-Sep-02 23:30N 51°11' E 001°40'4 7.6
2019-Sep-02 23:01N 51°14' E 001°44'5 9.7
2019-Sep-02 22:30N 51°18' E 001°47'5 9.7
2019-Sep-02 22:00N 51°23' E 001°50'4 8.5
2019-Sep-02 21:30N 51°26' E 001°53'4 7.5
2019-Sep-02 21:00N 51°29' E 001°57'3 7.0
2019-Sep-02 20:30N 51°32' E 001°60'3 6.2
2019-Sep-02 20:00N 51°35' E 002°02'3 5.7
2019-Sep-02 19:30N 51°38' E 002°04'2 4.8
2019-Sep-02 19:00N 51°40' E 002°06'2 4.6
2019-Sep-02 18:30N 51°42' E 002°08'2 4.0
2019-Sep-02 18:00N 51°44' E 002°08'2 3.7
2019-Sep-02 17:30N 51°46' E 002°09'2 3.7
2019-Sep-02 17:01N 51°47' E 002°09'1 1.1
2019-Sep-02 16:28N 51°47' E 002°09'3 6.3
2019-Sep-02 15:58N 51°45' E 002°13'17 6.9
2019-Sep-02 13:31N 51°32' E 002°31'1 5.7
2019-Sep-02 13:22N 51°31' E 002°32'2 4.3
2019-Sep-02 12:57N 51°30' E 002°34'9 5.7
2019-Sep-02 11:26N 51°25' E 002°46'3 6.2
2019-Sep-02 10:59N 51°24' E 002°49'3 5.6
2019-Sep-02 10:30N 51°22' E 002°53'1 2.4
2019-Sep-02 09:56N 51°23' E 002°55'3 5.4
2019-Sep-02 09:28N 51°25' E 002°56'27 3.9
2019-Sep-02 02:41N 51°46' E 003°24'1 2.9
2019-Sep-02 02:30N 51°46' E 003°24'2 3.6
2019-Sep-02 01:57N 51°48' E 003°27'2 4.1
2019-Sep-02 01:30N 51°49' E 003°28'3 5.8
2019-Sep-02 01:00N 51°51' E 003°32'4 8.3
2019-Sep-02 00:30N 51°54' E 003°37'5 9.4
2019-Sep-02 00:00N 51°58' E 003°41'5 9.1
2019-Sep-01 23:30N 52°01' E 003°45'4 7.5
2019-Sep-01 23:00N 52°04' E 003°49'3 5.8
2019-Sep-01 22:30N 52°06' E 003°52'2 4.6
2019-Sep-01 22:00N 52°09' E 003°53'1 1.9
2019-Sep-01 21:30N 52°09' E 003°54'2 3.2
2019-Sep-01 21:00N 52°09' E 003°57'1 1.4
2019-Sep-01 20:30N 52°09' E 003°58'1 3.0
2019-Sep-01 20:00N 52°10' E 004°00'4 7.6
2019-Sep-01 19:30N 52°09' E 004°06'4 7.2
2019-Sep-01 19:00N 52°08' E 004°12'3 5.3
2019-Sep-01 18:30N 52°06' E 004°15'1 0.9
2019-Sep-01 17:58N 52°06' E 004°16'0 0.0
2019-Sep-01 17:28N 52°06' E 004°16'0 0.0
2019-Sep-01 16:58N 52°06' E 004°16'0 0.0
2019-Sep-01 16:28N 52°06' E 004°16'0 0.0
2019-Sep-01 15:58N 52°06' E 004°16'0 0.0
2019-Sep-01 15:28N 52°06' E 004°16'0 0.0
2019-Sep-01 14:58N 52°06' E 004°16'0 0.0
2019-Sep-01 14:25N 52°06' E 004°16'0 0.0
2019-Sep-01 13:58N 52°06' E 004°16'0 0.0
2019-Sep-01 13:28N 52°06' E 004°16'0 0.0
2019-Sep-01 12:58N 52°06' E 004°16'0 0.0
2019-Sep-01 12:28N 52°06' E 004°16'0 0.0
2019-Sep-01 11:58N 52°06' E 004°16'0 0.0
2019-Sep-01 11:28N 52°06' E 004°16'0 0.0
2019-Sep-01 10:58N 52°06' E 004°16'0 0.0
2019-Sep-01 10:28N 52°06' E 004°16'0 0.0
2019-Sep-01 09:58N 52°06' E 004°16'0 0.0
2019-Sep-01 09:28N 52°06' E 004°16'0 0.0
2019-Sep-01 08:58N 52°06' E 004°16'0 0.0
2019-Sep-01 08:28N 52°06' E 004°16'0 0.0
2019-Sep-01 07:58N 52°06' E 004°16'0 0.0
2019-Sep-01 07:28N 52°06' E 004°16'0 0.0
2019-Sep-01 06:58N 52°06' E 004°16'0 0.0
2019-Sep-01 06:28N 52°06' E 004°16'0 0.0
2019-Sep-01 05:58N 52°06' E 004°16'0 0.0
2019-Sep-01 05:28N 52°06' E 004°16'0 0.0
2019-Sep-01 04:58N 52°06' E 004°16'0 0.0
2019-Sep-01 04:28N 52°06' E 004°16'0 0.0
2019-Sep-01 03:58N 52°06' E 004°16'0 0.0
2019-Sep-01 03:28N 52°06' E 004°16'0 0.0
2019-Sep-01 02:58N 52°06' E 004°16'0 0.0
2019-Sep-01 02:28N 52°06' E 004°16'0 0.0
2019-Sep-01 01:58N 52°06' E 004°16'0 0.0
2019-Sep-01 01:28N 52°06' E 004°16'0 0.0
2019-Sep-01 00:58N 52°06' E 004°16'0 0.0
2019-Sep-01 00:28N 52°06' E 004°16'0 0.0
2019-Aug-31 23:58N 52°06' E 004°16'0 0.0
2019-Aug-31 23:28N 52°06' E 004°16'0 0.0
2019-Aug-31 22:58N 52°06' E 004°16'0 0.0
2019-Aug-31 22:28N 52°06' E 004°16'0 0.0
2019-Aug-31 21:58N 52°06' E 004°16'0 0.0
2019-Aug-31 21:28N 52°06' E 004°16'0 0.0
2019-Aug-31 20:58N 52°06' E 004°16'0 0.0
2019-Aug-31 20:28N 52°06' E 004°16'0 0.0
2019-Aug-31 19:58N 52°06' E 004°16'0 0.0
2019-Aug-31 19:28N 52°06' E 004°16'0 0.0
2019-Aug-31 18:58N 52°06' E 004°16'0 0.0
2019-Aug-31 18:25N 52°06' E 004°16'0 0.0
2019-Aug-31 17:58N 52°06' E 004°16'0 0.0
2019-Aug-31 17:28N 52°06' E 004°16'0 0.0
2019-Aug-31 16:58N 52°06' E 004°16'0 0.0
2019-Aug-31 16:28N 52°06' E 004°16'0 0.0
2019-Aug-31 15:58N 52°06' E 004°16'0 0.0
2019-Aug-31 15:28N 52°06' E 004°16'0 0.0
2019-Aug-31 14:58N 52°06' E 004°16'0 0.0
2019-Aug-31 14:28N 52°06' E 004°16'0 0.1
2019-Aug-31 14:00N 52°06' E 004°16'2 3.4
2019-Aug-31 13:30N 52°07' E 004°14'4 7.0
2019-Aug-31 13:00N 52°11' E 004°14'3 5.8
2019-Aug-31 12:30N 52°13' E 004°12'0 0.5
2019-Aug-31 12:00N 52°14' E 004°11'0 1.0
2019-Aug-31 11:30N 52°14' E 004°11'1 2.9
2019-Aug-31 11:00N 52°15' E 004°09'2 3.9
2019-Aug-31 10:30N 52°16' E 004°06'2 4.3
2019-Aug-31 10:00N 52°17' E 004°03'3 5.0
2019-Aug-31 09:30N 52°18' E 003°60'2 4.6
2019-Aug-31 09:00N 52°20' E 003°57'2 4.1
2019-Aug-31 08:30N 52°21' E 003°54'3 5.1
2019-Aug-31 08:00N 52°22' E 003°50'2 4.8
2019-Aug-31 07:30N 52°23' E 003°47'2 4.9
2019-Aug-31 07:00N 52°25' E 003°44'4 7.9
2019-Aug-31 06:30N 52°29' E 003°42'4 7.5
2019-Aug-31 06:00N 52°32' E 003°40'3 5.3
2019-Aug-31 05:30N 52°35' E 003°39'2 4.8
2019-Aug-31 05:00N 52°36' E 003°43'3 5.3
2019-Aug-31 04:30N 52°36' E 003°47'2 4.9
2019-Aug-31 04:00N 52°36' E 003°51'2 3.9
2019-Aug-31 03:30N 52°36' E 003°54'1 2.6
2019-Aug-31 03:00N 52°36' E 003°56'1 1.6
2019-Aug-31 02:29N 52°35' E 003°57'1 1.5
2019-Aug-31 02:00N 52°35' E 003°58'1 2.0
2019-Aug-31 01:30N 52°35' E 004°00'1 2.8
2019-Aug-31 01:00N 52°35' E 004°02'2 3.8
2019-Aug-31 00:30N 52°36' E 004°05'3 6.0
2019-Aug-31 00:00N 52°38' E 004°10'3 7.1
2019-Aug-30 23:30N 52°39' E 004°15'3 6.2
2019-Aug-30 22:57N 52°41' E 004°20'3 6.0
2019-Aug-30 22:30N 52°42' E 004°24'2 4.7
2019-Aug-30 22:00N 52°43' E 004°27'3 6.6
2019-Aug-30 21:30N 52°45' E 004°31'3 6.7
2019-Aug-30 21:00N 52°48' E 004°33'3 6.5
2019-Aug-30 20:30N 52°51' E 004°36'3 6.4
2019-Aug-30 20:00N 52°54' E 004°38'  

Dump ship's entire track history